sensor_id;sensor_type;location;lat;lon;timestamp;P1;durP1;ratioP1;P2;durP2;ratioP2
54408;SDS011;40315;48.620;9.828;2022-11-03T00:00:59;10.57;;;4.60;;
54408;SDS011;40315;48.620;9.828;2022-11-03T00:03:26;10.20;;;4.65;;
54408;SDS011;40315;48.620;9.828;2022-11-03T00:05:53;7.03;;;4.82;;
54408;SDS011;40315;48.620;9.828;2022-11-03T00:08:35;8.35;;;5.20;;
54408;SDS011;40315;48.620;9.828;2022-11-03T00:11:07;8.80;;;4.65;;
54408;SDS011;40315;48.620;9.828;2022-11-03T00:13:36;7.30;;;5.32;;
54408;SDS011;40315;48.620;9.828;2022-11-03T00:16:05;8.85;;;5.28;;
54408;SDS011;40315;48.620;9.828;2022-11-03T00:18:33;9.73;;;5.07;;
54408;SDS011;40315;48.620;9.828;2022-11-03T00:21:01;10.07;;;7.00;;
54408;SDS011;40315;48.620;9.828;2022-11-03T00:23:29;9.60;;;6.03;;
54408;SDS011;40315;48.620;9.828;2022-11-03T00:26:04;12.55;;;5.57;;
54408;SDS011;40315;48.620;9.828;2022-11-03T00:28:33;11.00;;;5.72;;
54408;SDS011;40315;48.620;9.828;2022-11-03T00:31:01;10.95;;;6.13;;
54408;SDS011;40315;48.620;9.828;2022-11-03T00:33:34;9.80;;;5.47;;
54408;SDS011;40315;48.620;9.828;2022-11-03T00:36:01;8.00;;;4.70;;
54408;SDS011;40315;48.620;9.828;2022-11-03T00:38:29;9.07;;;4.88;;
54408;SDS011;40315;48.620;9.828;2022-11-03T00:40:57;9.25;;;4.47;;
54408;SDS011;40315;48.620;9.828;2022-11-03T00:43:25;8.82;;;5.10;;
54408;SDS011;40315;48.620;9.828;2022-11-03T00:45:56;9.35;;;5.68;;
54408;SDS011;40315;48.620;9.828;2022-11-03T00:48:24;9.43;;;5.32;;
54408;SDS011;40315;48.620;9.828;2022-11-03T00:50:58;8.10;;;5.40;;
54408;SDS011;40315;48.620;9.828;2022-11-03T00:53:30;10.68;;;5.13;;
54408;SDS011;40315;48.620;9.828;2022-11-03T00:55:58;11.80;;;5.03;;
54408;SDS011;40315;48.620;9.828;2022-11-03T00:58:25;10.30;;;5.90;;
54408;SDS011;40315;48.620;9.828;2022-11-03T01:03:37;9.83;;;6.40;;
54408;SDS011;40315;48.620;9.828;2022-11-03T01:06:08;13.13;;;7.63;;
54408;SDS011;40315;48.620;9.828;2022-11-03T01:08:54;15.70;;;7.47;;
54408;SDS011;40315;48.620;9.828;2022-11-03T01:11:24;15.18;;;8.10;;
54408;SDS011;40315;48.620;9.828;2022-11-03T01:14:09;14.77;;;8.67;;
54408;SDS011;40315;48.620;9.828;2022-11-03T01:16:37;12.63;;;7.85;;
54408;SDS011;40315;48.620;9.828;2022-11-03T01:19:08;12.82;;;8.75;;
54408;SDS011;40315;48.620;9.828;2022-11-03T01:21:35;14.45;;;9.07;;
54408;SDS011;40315;48.620;9.828;2022-11-03T01:24:05;17.20;;;10.10;;
54408;SDS011;40315;48.620;9.828;2022-11-03T01:26:32;19.77;;;10.75;;
54408;SDS011;40315;48.620;9.828;2022-11-03T01:28:59;21.40;;;11.10;;
54408;SDS011;40315;48.620;9.828;2022-11-03T01:31:26;20.17;;;11.20;;
54408;SDS011;40315;48.620;9.828;2022-11-03T01:33:54;16.45;;;10.20;;
54408;SDS011;40315;48.620;9.828;2022-11-03T01:36:23;18.97;;;9.90;;
54408;SDS011;40315;48.620;9.828;2022-11-03T01:38:52;21.00;;;10.90;;
54408;SDS011;40315;48.620;9.828;2022-11-03T01:48:06;20.63;;;12.27;;
54408;SDS011;40315;48.620;9.828;2022-11-03T01:50:34;22.15;;;12.90;;
54408;SDS011;40315;48.620;9.828;2022-11-03T01:53:04;23.27;;;12.38;;
54408;SDS011;40315;48.620;9.828;2022-11-03T01:55:35;19.90;;;12.67;;
54408;SDS011;40315;48.620;9.828;2022-11-03T01:58:04;19.50;;;13.00;;
54408;SDS011;40315;48.620;9.828;2022-11-03T02:00:35;23.10;;;12.95;;
54408;SDS011;40315;48.620;9.828;2022-11-03T02:03:03;20.52;;;13.27;;
54408;SDS011;40315;48.620;9.828;2022-11-03T02:05:31;20.48;;;12.45;;
54408;SDS011;40315;48.620;9.828;2022-11-03T02:07:59;20.10;;;11.93;;
54408;SDS011;40315;48.620;9.828;2022-11-03T02:10:32;23.00;;;13.17;;
54408;SDS011;40315;48.620;9.828;2022-11-03T02:13:00;18.10;;;11.88;;
54408;SDS011;40315;48.620;9.828;2022-11-03T02:15:33;21.55;;;12.80;;
54408;SDS011;40315;48.620;9.828;2022-11-03T02:18:01;16.13;;;11.13;;
54408;SDS011;40315;48.620;9.828;2022-11-03T02:20:30;16.85;;;11.05;;
54408;SDS011;40315;48.620;9.828;2022-11-03T02:23:03;19.27;;;11.38;;
54408;SDS011;40315;48.620;9.828;2022-11-03T02:25:44;17.03;;;11.20;;
54408;SDS011;40315;48.620;9.828;2022-11-03T02:28:14;15.52;;;10.07;;
54408;SDS011;40315;48.620;9.828;2022-11-03T02:30:44;15.00;;;9.63;;
54408;SDS011;40315;48.620;9.828;2022-11-03T02:33:19;15.48;;;10.77;;
54408;SDS011;40315;48.620;9.828;2022-11-03T02:35:56;14.23;;;10.10;;
54408;SDS011;40315;48.620;9.828;2022-11-03T02:38:29;14.20;;;9.73;;
54408;SDS011;40315;48.620;9.828;2022-11-03T02:41:00;11.95;;;8.63;;
54408;SDS011;40315;48.620;9.828;2022-11-03T02:43:31;12.88;;;9.13;;
54408;SDS011;40315;48.620;9.828;2022-11-03T02:45:59;13.38;;;9.18;;
54408;SDS011;40315;48.620;9.828;2022-11-03T02:48:29;13.90;;;9.50;;
54408;SDS011;40315;48.620;9.828;2022-11-03T02:50:56;13.30;;;8.65;;
54408;SDS011;40315;48.620;9.828;2022-11-03T02:53:26;11.83;;;8.30;;
54408;SDS011;40315;48.620;9.828;2022-11-03T02:55:57;12.68;;;8.82;;
54408;SDS011;40315;48.620;9.828;2022-11-03T02:58:32;11.60;;;8.82;;
54408;SDS011;40315;48.620;9.828;2022-11-03T03:01:05;18.02;;;10.18;;
54408;SDS011;40315;48.620;9.828;2022-11-03T03:03:41;13.73;;;9.90;;
54408;SDS011;40315;48.620;9.828;2022-11-03T03:06:14;13.80;;;9.35;;
54408;SDS011;40315;48.620;9.828;2022-11-03T03:08:49;16.23;;;11.15;;
54408;SDS011;40315;48.620;9.828;2022-11-03T03:11:22;14.07;;;10.38;;
54408;SDS011;40315;48.620;9.828;2022-11-03T03:14:03;14.52;;;10.13;;
54408;SDS011;40315;48.620;9.828;2022-11-03T03:16:33;14.48;;;9.93;;
54408;SDS011;40315;48.620;9.828;2022-11-03T03:19:06;12.63;;;9.02;;
54408;SDS011;40315;48.620;9.828;2022-11-03T03:21:45;17.05;;;10.10;;
54408;SDS011;40315;48.620;9.828;2022-11-03T03:24:17;16.67;;;10.70;;
54408;SDS011;40315;48.620;9.828;2022-11-03T03:26:52;15.27;;;10.80;;
54408;SDS011;40315;48.620;9.828;2022-11-03T03:29:24;18.08;;;10.32;;
54408;SDS011;40315;48.620;9.828;2022-11-03T03:31:55;17.65;;;11.57;;
54408;SDS011;40315;48.620;9.828;2022-11-03T03:34:27;17.75;;;11.52;;
54408;SDS011;40315;48.620;9.828;2022-11-03T03:36:57;18.73;;;11.37;;
54408;SDS011;40315;48.620;9.828;2022-11-03T03:39:26;21.20;;;11.07;;
54408;SDS011;40315;48.620;9.828;2022-11-03T03:41:57;18.13;;;11.03;;
54408;SDS011;40315;48.620;9.828;2022-11-03T03:44:27;15.93;;;10.87;;
54408;SDS011;40315;48.620;9.828;2022-11-03T03:46:56;18.58;;;11.30;;
54408;SDS011;40315;48.620;9.828;2022-11-03T03:49:26;18.47;;;11.43;;
54408;SDS011;40315;48.620;9.828;2022-11-03T03:51:53;18.60;;;11.53;;
54408;SDS011;40315;48.620;9.828;2022-11-03T03:54:20;19.93;;;11.77;;
54408;SDS011;40315;48.620;9.828;2022-11-03T03:56:48;19.33;;;11.65;;
54408;SDS011;40315;48.620;9.828;2022-11-03T03:59:25;21.60;;;10.97;;
54408;SDS011;40315;48.620;9.828;2022-11-03T04:01:52;19.17;;;11.70;;
54408;SDS011;40315;48.620;9.828;2022-11-03T04:04:20;17.50;;;11.87;;
54408;SDS011;40315;48.620;9.828;2022-11-03T04:06:47;18.70;;;11.90;;
54408;SDS011;40315;48.620;9.828;2022-11-03T04:09:34;21.83;;;12.17;;
54408;SDS011;40315;48.620;9.828;2022-11-03T04:12:01;17.37;;;11.50;;
54408;SDS011;40315;48.620;9.828;2022-11-03T04:14:47;17.20;;;10.33;;
54408;SDS011;40315;48.620;9.828;2022-11-03T04:17:34;19.80;;;11.35;;
54408;SDS011;40315;48.620;9.828;2022-11-03T04:20:26;17.17;;;10.73;;
54408;SDS011;40315;48.620;9.828;2022-11-03T04:23:10;19.07;;;10.57;;
54408;SDS011;40315;48.620;9.828;2022-11-03T04:25:39;16.60;;;10.93;;
54408;SDS011;40315;48.620;9.828;2022-11-03T04:28:08;16.17;;;10.27;;
54408;SDS011;40315;48.620;9.828;2022-11-03T04:30:39;16.60;;;11.07;;
54408;SDS011;40315;48.620;9.828;2022-11-03T04:33:08;16.33;;;10.73;;
54408;SDS011;40315;48.620;9.828;2022-11-03T04:35:39;16.77;;;10.50;;
54408;SDS011;40315;48.620;9.828;2022-11-03T04:38:15;14.63;;;10.90;;
54408;SDS011;40315;48.620;9.828;2022-11-03T04:40:49;14.10;;;10.13;;
54408;SDS011;40315;48.620;9.828;2022-11-03T04:43:22;14.88;;;10.50;;
54408;SDS011;40315;48.620;9.828;2022-11-03T04:45:57;14.87;;;10.70;;
54408;SDS011;40315;48.620;9.828;2022-11-03T04:48:25;16.87;;;10.50;;
54408;SDS011;40315;48.620;9.828;2022-11-03T04:50:53;16.77;;;11.17;;
54408;SDS011;40315;48.620;9.828;2022-11-03T04:53:23;16.07;;;11.17;;
54408;SDS011;40315;48.620;9.828;2022-11-03T04:55:55;15.93;;;11.00;;
54408;SDS011;40315;48.620;9.828;2022-11-03T04:58:22;19.10;;;11.67;;
54408;SDS011;40315;48.620;9.828;2022-11-03T05:00:55;15.53;;;11.50;;
54408;SDS011;40315;48.620;9.828;2022-11-03T05:03:28;19.27;;;11.38;;
54408;SDS011;40315;48.620;9.828;2022-11-03T05:05:57;18.77;;;11.53;;
54408;SDS011;40315;48.620;9.828;2022-11-03T05:08:33;21.23;;;11.57;;
54408;SDS011;40315;48.620;9.828;2022-11-03T05:11:00;16.60;;;10.50;;
54408;SDS011;40315;48.620;9.828;2022-11-03T05:13:37;17.07;;;10.60;;
54408;SDS011;40315;48.620;9.828;2022-11-03T05:16:06;14.80;;;10.57;;
54408;SDS011;40315;48.620;9.828;2022-11-03T05:18:34;15.97;;;10.87;;
54408;SDS011;40315;48.620;9.828;2022-11-03T05:21:05;18.00;;;11.20;;
54408;SDS011;40315;48.620;9.828;2022-11-03T05:23:36;16.93;;;11.60;;
54408;SDS011;40315;48.620;9.828;2022-11-03T05:26:06;16.73;;;11.33;;
54408;SDS011;40315;48.620;9.828;2022-11-03T05:28:38;20.97;;;12.17;;
54408;SDS011;40315;48.620;9.828;2022-11-03T05:31:15;20.20;;;12.47;;
54408;SDS011;40315;48.620;9.828;2022-11-03T05:33:50;18.67;;;11.83;;
54408;SDS011;40315;48.620;9.828;2022-11-03T05:36:21;21.13;;;13.53;;
54408;SDS011;40315;48.620;9.828;2022-11-03T05:38:53;28.80;;;16.03;;
54408;SDS011;40315;48.620;9.828;2022-11-03T05:41:24;27.00;;;15.90;;
54408;SDS011;40315;48.620;9.828;2022-11-03T05:44:00;27.53;;;16.37;;
54408;SDS011;40315;48.620;9.828;2022-11-03T05:46:30;31.60;;;18.03;;
54408;SDS011;40315;48.620;9.828;2022-11-03T05:49:00;28.02;;;16.17;;
54408;SDS011;40315;48.620;9.828;2022-11-03T05:51:31;27.40;;;16.67;;
54408;SDS011;40315;48.620;9.828;2022-11-03T05:54:03;29.53;;;16.70;;
54408;SDS011;40315;48.620;9.828;2022-11-03T05:56:36;27.10;;;15.98;;
54408;SDS011;40315;48.620;9.828;2022-11-03T05:59:03;29.42;;;16.05;;
54408;SDS011;40315;48.620;9.828;2022-11-03T06:01:34;25.90;;;15.57;;
54408;SDS011;40315;48.620;9.828;2022-11-03T06:04:11;31.48;;;17.35;;
54408;SDS011;40315;48.620;9.828;2022-11-03T06:06:46;41.72;;;23.00;;
54408;SDS011;40315;48.620;9.828;2022-11-03T06:09:19;28.70;;;17.27;;
54408;SDS011;40315;48.620;9.828;2022-11-03T06:11:48;25.05;;;16.08;;
54408;SDS011;40315;48.620;9.828;2022-11-03T06:14:17;30.73;;;17.73;;
54408;SDS011;40315;48.620;9.828;2022-11-03T06:16:48;30.60;;;19.05;;
54408;SDS011;40315;48.620;9.828;2022-11-03T06:19:19;25.77;;;16.50;;
54408;SDS011;40315;48.620;9.828;2022-11-03T06:21:48;26.73;;;15.43;;
54408;SDS011;40315;48.620;9.828;2022-11-03T06:24:19;24.23;;;14.15;;
54408;SDS011;40315;48.620;9.828;2022-11-03T06:26:50;29.03;;;15.07;;
54408;SDS011;40315;48.620;9.828;2022-11-03T06:29:18;21.80;;;13.73;;
54408;SDS011;40315;48.620;9.828;2022-11-03T06:31:47;24.70;;;14.52;;
54408;SDS011;40315;48.620;9.828;2022-11-03T06:34:31;24.60;;;15.00;;
54408;SDS011;40315;48.620;9.828;2022-11-03T06:37:04;25.63;;;14.65;;
54408;SDS011;40315;48.620;9.828;2022-11-03T06:39:41;23.97;;;14.97;;
54408;SDS011;40315;48.620;9.828;2022-11-03T06:42:11;24.98;;;14.55;;
54408;SDS011;40315;48.620;9.828;2022-11-03T06:44:40;26.65;;;15.80;;
54408;SDS011;40315;48.620;9.828;2022-11-03T06:47:20;26.85;;;14.70;;
54408;SDS011;40315;48.620;9.828;2022-11-03T06:49:49;21.80;;;14.97;;
54408;SDS011;40315;48.620;9.828;2022-11-03T06:52:22;25.53;;;14.07;;
54408;SDS011;40315;48.620;9.828;2022-11-03T06:54:52;23.73;;;14.63;;
54408;SDS011;40315;48.620;9.828;2022-11-03T06:57:24;21.60;;;13.02;;
54408;SDS011;40315;48.620;9.828;2022-11-03T06:59:51;20.08;;;13.35;;
54408;SDS011;40315;48.620;9.828;2022-11-03T07:02:31;24.63;;;14.30;;
54408;SDS011;40315;48.620;9.828;2022-11-03T07:05:17;17.05;;;12.25;;
54408;SDS011;40315;48.620;9.828;2022-11-03T07:07:46;24.35;;;13.50;;
54408;SDS011;40315;48.620;9.828;2022-11-03T07:10:13;19.83;;;12.40;;
54408;SDS011;40315;48.620;9.828;2022-11-03T07:12:40;18.07;;;12.53;;
54408;SDS011;40315;48.620;9.828;2022-11-03T07:15:15;23.25;;;12.57;;
54408;SDS011;40315;48.620;9.828;2022-11-03T07:17:49;25.30;;;13.80;;
54408;SDS011;40315;48.620;9.828;2022-11-03T07:20:17;24.20;;;13.85;;
54408;SDS011;40315;48.620;9.828;2022-11-03T07:22:44;22.42;;;12.50;;
54408;SDS011;40315;48.620;9.828;2022-11-03T07:25:13;25.40;;;13.05;;
54408;SDS011;40315;48.620;9.828;2022-11-03T07:27:43;24.05;;;13.88;;
54408;SDS011;40315;48.620;9.828;2022-11-03T07:30:21;25.40;;;13.95;;
54408;SDS011;40315;48.620;9.828;2022-11-03T07:32:51;22.73;;;13.52;;
54408;SDS011;40315;48.620;9.828;2022-11-03T07:35:24;24.20;;;13.68;;
54408;SDS011;40315;48.620;9.828;2022-11-03T07:38:00;21.33;;;12.18;;
54408;SDS011;40315;48.620;9.828;2022-11-03T07:40:34;20.92;;;12.63;;
54408;SDS011;40315;48.620;9.828;2022-11-03T07:43:08;21.75;;;12.93;;
54408;SDS011;40315;48.620;9.828;2022-11-03T07:45:40;23.43;;;13.03;;
54408;SDS011;40315;48.620;9.828;2022-11-03T07:48:20;24.02;;;13.63;;
54408;SDS011;40315;48.620;9.828;2022-11-03T07:50:51;23.00;;;13.52;;
54408;SDS011;40315;48.620;9.828;2022-11-03T07:53:20;20.95;;;12.60;;
54408;SDS011;40315;48.620;9.828;2022-11-03T07:55:51;18.87;;;12.47;;
54408;SDS011;40315;48.620;9.828;2022-11-03T07:58:24;18.33;;;11.73;;
54408;SDS011;40315;48.620;9.828;2022-11-03T08:01:02;19.33;;;11.82;;
54408;SDS011;40315;48.620;9.828;2022-11-03T08:03:52;18.45;;;11.48;;
54408;SDS011;40315;48.620;9.828;2022-11-03T08:06:25;18.65;;;11.50;;
54408;SDS011;40315;48.620;9.828;2022-11-03T08:08:54;16.80;;;11.38;;
54408;SDS011;40315;48.620;9.828;2022-11-03T08:11:21;14.80;;;10.73;;
54408;SDS011;40315;48.620;9.828;2022-11-03T08:13:49;16.20;;;10.65;;
54408;SDS011;40315;48.620;9.828;2022-11-03T08:16:16;17.30;;;10.57;;
54408;SDS011;40315;48.620;9.828;2022-11-03T08:18:43;16.33;;;10.02;;
54408;SDS011;40315;48.620;9.828;2022-11-03T08:21:11;14.35;;;9.88;;
54408;SDS011;40315;48.620;9.828;2022-11-03T08:23:39;14.52;;;10.32;;
54408;SDS011;40315;48.620;9.828;2022-11-03T08:26:06;13.88;;;9.82;;
54408;SDS011;40315;48.620;9.828;2022-11-03T08:28:33;17.00;;;9.38;;
54408;SDS011;40315;48.620;9.828;2022-11-03T08:31:03;13.30;;;9.15;;
54408;SDS011;40315;48.620;9.828;2022-11-03T08:33:31;12.48;;;9.07;;
54408;SDS011;40315;48.620;9.828;2022-11-03T08:35:58;12.10;;;8.90;;
54408;SDS011;40315;48.620;9.828;2022-11-03T08:38:28;11.88;;;9.50;;
54408;SDS011;40315;48.620;9.828;2022-11-03T08:40:55;11.10;;;8.75;;
54408;SDS011;40315;48.620;9.828;2022-11-03T08:43:26;12.25;;;8.82;;
54408;SDS011;40315;48.620;9.828;2022-11-03T08:45:53;13.77;;;9.20;;
54408;SDS011;40315;48.620;9.828;2022-11-03T08:48:20;13.85;;;9.55;;
54408;SDS011;40315;48.620;9.828;2022-11-03T08:50:48;12.52;;;9.52;;
54408;SDS011;40315;48.620;9.828;2022-11-03T08:53:20;13.73;;;9.73;;
54408;SDS011;40315;48.620;9.828;2022-11-03T08:55:51;13.30;;;9.38;;
54408;SDS011;40315;48.620;9.828;2022-11-03T08:58:21;13.90;;;9.77;;
54408;SDS011;40315;48.620;9.828;2022-11-03T09:00:48;13.85;;;9.07;;
54408;SDS011;40315;48.620;9.828;2022-11-03T09:03:15;13.05;;;10.15;;
54408;SDS011;40315;48.620;9.828;2022-11-03T09:05:43;14.30;;;9.98;;
54408;SDS011;40315;48.620;9.828;2022-11-03T09:08:11;13.52;;;10.68;;
54408;SDS011;40315;48.620;9.828;2022-11-03T09:10:38;13.88;;;9.93;;
54408;SDS011;40315;48.620;9.828;2022-11-03T09:13:06;16.88;;;10.48;;
54408;SDS011;40315;48.620;9.828;2022-11-03T09:15:33;13.38;;;9.60;;
54408;SDS011;40315;48.620;9.828;2022-11-03T09:18:00;14.57;;;10.35;;
54408;SDS011;40315;48.620;9.828;2022-11-03T09:20:27;14.15;;;9.80;;
54408;SDS011;40315;48.620;9.828;2022-11-03T09:22:55;13.25;;;9.35;;
54408;SDS011;40315;48.620;9.828;2022-11-03T09:25:22;12.18;;;9.30;;
54408;SDS011;40315;48.620;9.828;2022-11-03T09:27:51;13.45;;;9.63;;
54408;SDS011;40315;48.620;9.828;2022-11-03T09:30:19;13.10;;;9.50;;
54408;SDS011;40315;48.620;9.828;2022-11-03T09:32:46;11.25;;;9.05;;
54408;SDS011;40315;48.620;9.828;2022-11-03T09:35:13;12.68;;;9.80;;
54408;SDS011;40315;48.620;9.828;2022-11-03T09:37:41;12.27;;;9.57;;
54408;SDS011;40315;48.620;9.828;2022-11-03T09:40:09;11.65;;;9.02;;
54408;SDS011;40315;48.620;9.828;2022-11-03T09:42:40;11.77;;;9.40;;
54408;SDS011;40315;48.620;9.828;2022-11-03T09:45:08;11.95;;;8.80;;
54408;SDS011;40315;48.620;9.828;2022-11-03T09:47:38;12.50;;;9.82;;
54408;SDS011;40315;48.620;9.828;2022-11-03T09:50:09;13.32;;;9.65;;
54408;SDS011;40315;48.620;9.828;2022-11-03T09:52:38;10.82;;;8.95;;
54408;SDS011;40315;48.620;9.828;2022-11-03T09:55:10;12.65;;;9.30;;
54408;SDS011;40315;48.620;9.828;2022-11-03T09:57:40;10.68;;;8.38;;
54408;SDS011;40315;48.620;9.828;2022-11-03T10:00:13;14.10;;;8.57;;
54408;SDS011;40315;48.620;9.828;2022-11-03T10:02:45;11.43;;;8.77;;
54408;SDS011;40315;48.620;9.828;2022-11-03T10:05:17;12.57;;;8.57;;
54408;SDS011;40315;48.620;9.828;2022-11-03T10:07:48;11.63;;;9.07;;
54408;SDS011;40315;48.620;9.828;2022-11-03T10:10:18;11.18;;;8.32;;
54408;SDS011;40315;48.620;9.828;2022-11-03T10:12:46;10.98;;;8.48;;
54408;SDS011;40315;48.620;9.828;2022-11-03T10:15:16;10.85;;;8.80;;
54408;SDS011;40315;48.620;9.828;2022-11-03T10:17:48;8.77;;;7.88;;
54408;SDS011;40315;48.620;9.828;2022-11-03T10:20:16;10.63;;;8.65;;
54408;SDS011;40315;48.620;9.828;2022-11-03T10:22:45;10.73;;;8.07;;
54408;SDS011;40315;48.620;9.828;2022-11-03T10:25:28;10.68;;;8.15;;
54408;SDS011;40315;48.620;9.828;2022-11-03T10:28:15;11.07;;;7.85;;
54408;SDS011;40315;48.620;9.828;2022-11-03T10:30:47;12.05;;;8.82;;
54408;SDS011;40315;48.620;9.828;2022-11-03T10:33:27;11.15;;;8.75;;
54408;SDS011;40315;48.620;9.828;2022-11-03T10:35:58;13.13;;;8.80;;
54408;SDS011;40315;48.620;9.828;2022-11-03T10:38:27;10.77;;;8.48;;
54408;SDS011;40315;48.620;9.828;2022-11-03T10:41:10;12.45;;;8.73;;
54408;SDS011;40315;48.620;9.828;2022-11-03T10:43:39;12.30;;;9.18;;
54408;SDS011;40315;48.620;9.828;2022-11-03T10:46:10;11.75;;;8.95;;
54408;SDS011;40315;48.620;9.828;2022-11-03T10:48:42;11.85;;;9.18;;
54408;SDS011;40315;48.620;9.828;2022-11-03T10:51:11;12.25;;;9.98;;
54408;SDS011;40315;48.620;9.828;2022-11-03T10:53:40;11.65;;;9.07;;
54408;SDS011;40315;48.620;9.828;2022-11-03T10:56:07;13.23;;;9.60;;
54408;SDS011;40315;48.620;9.828;2022-11-03T10:58:34;11.88;;;9.43;;
54408;SDS011;40315;48.620;9.828;2022-11-03T11:01:02;12.52;;;9.57;;
54408;SDS011;40315;48.620;9.828;2022-11-03T11:03:29;16.55;;;10.20;;
54408;SDS011;40315;48.620;9.828;2022-11-03T11:05:58;20.73;;;13.52;;
54408;SDS011;40315;48.620;9.828;2022-11-03T11:08:27;14.15;;;11.38;;
54408;SDS011;40315;48.620;9.828;2022-11-03T11:10:57;12.43;;;10.10;;
54408;SDS011;40315;48.620;9.828;2022-11-03T11:13:31;12.02;;;9.18;;
54408;SDS011;40315;48.620;9.828;2022-11-03T11:15:58;11.75;;;8.73;;
54408;SDS011;40315;48.620;9.828;2022-11-03T11:24:57;12.13;;;9.25;;
54408;SDS011;40315;48.620;9.828;2022-11-03T11:27:45;12.10;;;8.25;;
54408;SDS011;40315;48.620;9.828;2022-11-03T11:33:32;12.82;;;8.63;;
54408;SDS011;40315;48.620;9.828;2022-11-03T11:36:03;9.85;;;8.30;;
54408;SDS011;40315;48.620;9.828;2022-11-03T11:44:46;9.63;;;7.78;;
54408;SDS011;40315;48.620;9.828;2022-11-03T11:47:20;10.77;;;7.93;;
54408;SDS011;40315;48.620;9.828;2022-11-03T11:52:49;10.95;;;8.50;;
54408;SDS011;40315;48.620;9.828;2022-11-03T11:55:24;8.88;;;7.80;;
54408;SDS011;40315;48.620;9.828;2022-11-03T11:57:56;9.35;;;7.63;;
54408;SDS011;40315;48.620;9.828;2022-11-03T12:00:28;11.73;;;8.77;;
54408;SDS011;40315;48.620;9.828;2022-11-03T12:02:56;11.00;;;8.77;;
54408;SDS011;40315;48.620;9.828;2022-11-03T12:05:25;10.65;;;8.70;;
54408;SDS011;40315;48.620;9.828;2022-11-03T12:07:54;13.38;;;9.27;;
54408;SDS011;40315;48.620;9.828;2022-11-03T12:10:23;13.82;;;10.00;;
54408;SDS011;40315;48.620;9.828;2022-11-03T12:12:52;10.80;;;8.38;;
54408;SDS011;40315;48.620;9.828;2022-11-03T12:18:31;12.55;;;8.45;;
54408;SDS011;40315;48.620;9.828;2022-11-03T12:21:01;10.50;;;8.45;;
54408;SDS011;40315;48.620;9.828;2022-11-03T12:23:36;10.35;;;8.55;;
54408;SDS011;40315;48.620;9.828;2022-11-03T12:26:11;11.80;;;9.05;;
54408;SDS011;40315;48.620;9.828;2022-11-03T12:28:41;10.98;;;8.45;;
54408;SDS011;40315;48.620;9.828;2022-11-03T12:31:08;12.18;;;9.18;;
54408;SDS011;40315;48.620;9.828;2022-11-03T12:33:37;15.55;;;10.25;;
54408;SDS011;40315;48.620;9.828;2022-11-03T12:36:04;13.50;;;9.85;;
54408;SDS011;40315;48.620;9.828;2022-11-03T12:38:32;13.88;;;9.52;;
54408;SDS011;40315;48.620;9.828;2022-11-03T12:40:59;12.18;;;10.02;;
54408;SDS011;40315;48.620;9.828;2022-11-03T12:43:47;12.02;;;10.15;;
54408;SDS011;40315;48.620;9.828;2022-11-03T12:46:14;12.95;;;9.90;;
54408;SDS011;40315;48.620;9.828;2022-11-03T12:48:44;13.45;;;10.48;;
54408;SDS011;40315;48.620;9.828;2022-11-03T12:51:12;12.07;;;10.70;;
54408;SDS011;40315;48.620;9.828;2022-11-03T12:53:41;14.07;;;10.15;;
54408;SDS011;40315;48.620;9.828;2022-11-03T12:56:08;13.88;;;10.60;;
54408;SDS011;40315;48.620;9.828;2022-11-03T12:58:36;13.15;;;10.90;;
54408;SDS011;40315;48.620;9.828;2022-11-03T13:01:05;14.05;;;11.30;;
54408;SDS011;40315;48.620;9.828;2022-11-03T13:03:33;14.10;;;10.77;;
54408;SDS011;40315;48.620;9.828;2022-11-03T13:06:01;14.43;;;12.25;;
54408;SDS011;40315;48.620;9.828;2022-11-03T13:08:30;15.02;;;11.73;;
54408;SDS011;40315;48.620;9.828;2022-11-03T13:10:57;15.05;;;11.77;;
54408;SDS011;40315;48.620;9.828;2022-11-03T13:13:25;16.08;;;12.07;;
54408;SDS011;40315;48.620;9.828;2022-11-03T13:15:52;14.73;;;11.70;;
54408;SDS011;40315;48.620;9.828;2022-11-03T13:18:22;14.40;;;11.95;;
54408;SDS011;40315;48.620;9.828;2022-11-03T13:20:49;16.98;;;12.05;;
54408;SDS011;40315;48.620;9.828;2022-11-03T13:23:16;16.63;;;12.52;;
54408;SDS011;40315;48.620;9.828;2022-11-03T13:25:43;17.15;;;14.35;;
54408;SDS011;40315;48.620;9.828;2022-11-03T13:28:10;17.73;;;13.55;;
54408;SDS011;40315;48.620;9.828;2022-11-03T13:30:37;18.27;;;13.82;;
54408;SDS011;40315;48.620;9.828;2022-11-03T13:33:07;15.43;;;11.18;;
54408;SDS011;40315;48.620;9.828;2022-11-03T13:35:38;16.63;;;12.85;;
54408;SDS011;40315;48.620;9.828;2022-11-03T13:38:05;16.88;;;12.48;;
54408;SDS011;40315;48.620;9.828;2022-11-03T13:40:34;16.02;;;12.82;;
54408;SDS011;40315;48.620;9.828;2022-11-03T13:43:01;18.92;;;14.07;;
54408;SDS011;40315;48.620;9.828;2022-11-03T13:45:28;17.85;;;13.45;;
54408;SDS011;40315;48.620;9.828;2022-11-03T13:47:55;19.58;;;14.65;;
54408;SDS011;40315;48.620;9.828;2022-11-03T13:50:25;19.73;;;13.90;;
54408;SDS011;40315;48.620;9.828;2022-11-03T13:52:56;17.38;;;13.63;;
54408;SDS011;40315;48.620;9.828;2022-11-03T13:55:23;20.67;;;13.93;;
54408;SDS011;40315;48.620;9.828;2022-11-03T13:57:52;20.38;;;14.82;;
54408;SDS011;40315;48.620;9.828;2022-11-03T14:00:21;20.10;;;14.55;;
54408;SDS011;40315;48.620;9.828;2022-11-03T14:02:48;19.33;;;14.15;;
54408;SDS011;40315;48.620;9.828;2022-11-03T14:05:16;18.98;;;14.07;;
54408;SDS011;40315;48.620;9.828;2022-11-03T14:07:43;19.67;;;14.80;;
54408;SDS011;40315;48.620;9.828;2022-11-03T14:10:11;20.35;;;14.45;;
54408;SDS011;40315;48.620;9.828;2022-11-03T14:12:38;19.67;;;14.35;;
54408;SDS011;40315;48.620;9.828;2022-11-03T14:15:05;22.45;;;15.43;;
54408;SDS011;40315;48.620;9.828;2022-11-03T14:17:37;22.30;;;15.80;;
54408;SDS011;40315;48.620;9.828;2022-11-03T14:20:05;23.90;;;16.50;;
54408;SDS011;40315;48.620;9.828;2022-11-03T14:22:34;23.27;;;16.05;;
54408;SDS011;40315;48.620;9.828;2022-11-03T14:25:01;24.35;;;16.08;;
54408;SDS011;40315;48.620;9.828;2022-11-03T14:27:30;22.88;;;15.73;;
54408;SDS011;40315;48.620;9.828;2022-11-03T14:29:57;26.58;;;17.00;;
54408;SDS011;40315;48.620;9.828;2022-11-03T14:32:25;28.42;;;17.15;;
54408;SDS011;40315;48.620;9.828;2022-11-03T14:34:52;24.60;;;16.15;;
54408;SDS011;40315;48.620;9.828;2022-11-03T14:37:19;27.08;;;16.63;;
54408;SDS011;40315;48.620;9.828;2022-11-03T14:39:46;28.63;;;18.25;;
54408;SDS011;40315;48.620;9.828;2022-11-03T14:42:13;28.38;;;17.67;;
54408;SDS011;40315;48.620;9.828;2022-11-03T14:44:44;27.08;;;17.50;;
54408;SDS011;40315;48.620;9.828;2022-11-03T14:47:12;29.60;;;19.05;;
54408;SDS011;40315;48.620;9.828;2022-11-03T14:49:41;30.17;;;18.80;;
54408;SDS011;40315;48.620;9.828;2022-11-03T14:52:09;31.40;;;18.45;;
54408;SDS011;40315;48.620;9.828;2022-11-03T14:54:35;29.70;;;18.08;;
54408;SDS011;40315;48.620;9.828;2022-11-03T14:57:03;31.33;;;19.05;;
54408;SDS011;40315;48.620;9.828;2022-11-03T14:59:30;29.75;;;18.27;;
54408;SDS011;40315;48.620;9.828;2022-11-03T15:01:59;35.10;;;20.48;;
54408;SDS011;40315;48.620;9.828;2022-11-03T15:04:26;35.60;;;20.73;;
54408;SDS011;40315;48.620;9.828;2022-11-03T15:06:53;32.88;;;20.73;;
54408;SDS011;40315;48.620;9.828;2022-11-03T15:09:23;33.58;;;19.92;;
54408;SDS011;40315;48.620;9.828;2022-11-03T15:11:50;34.47;;;20.45;;
54408;SDS011;40315;48.620;9.828;2022-11-03T15:14:17;33.25;;;19.88;;
54408;SDS011;40315;48.620;9.828;2022-11-03T15:16:44;30.33;;;18.88;;